createdAt,value
2023-05-20T00:00:53.618Z,14.14
2023-05-20T00:01:59.842Z,14.13
2023-05-20T00:03:07.264Z,14.13
2023-05-20T00:04:14.196Z,14.14
2023-05-20T00:05:21.112Z,14.14
2023-05-20T00:06:27.346Z,14.14
2023-05-20T00:07:33.687Z,14.15
2023-05-20T00:08:39.654Z,14.14
2023-05-20T00:09:46.748Z,14.13
2023-05-20T00:10:52.872Z,14.11
2023-05-20T00:11:58.979Z,14.09
2023-05-20T00:13:06.960Z,14.07
2023-05-20T00:14:13.082Z,14.04
2023-05-20T00:15:19.599Z,14.01
2023-05-20T00:16:26.133Z,13.98
2023-05-20T00:17:32.772Z,13.95
2023-05-20T00:18:39.257Z,13.92
2023-05-20T00:19:46.026Z,13.88
2023-05-20T00:20:51.816Z,13.84
2023-05-20T00:21:58.141Z,13.80
2023-05-20T00:23:04.578Z,13.77
2023-05-20T00:24:11.080Z,13.73
2023-05-20T00:25:18.177Z,13.71
2023-05-20T00:26:25.148Z,13.68
2023-05-20T00:27:31.247Z,13.66
2023-05-20T00:28:37.415Z,13.65
2023-05-20T00:29:43.638Z,13.62
2023-05-20T00:30:49.907Z,13.59
2023-05-20T00:31:56.186Z,13.57
2023-05-20T00:33:02.993Z,13.54
2023-05-20T00:34:10.381Z,13.51
2023-05-20T00:35:16.766Z,13.48
2023-05-20T00:36:22.832Z,13.45
2023-05-20T00:37:29.379Z,13.42
2023-05-20T00:38:37.764Z,13.40
2023-05-20T00:39:45.049Z,13.36
2023-05-20T00:40:51.275Z,13.33
2023-05-20T00:42:00.729Z,13.29
2023-05-20T00:43:06.981Z,13.24
2023-05-20T00:44:13.437Z,13.20
2023-05-20T00:45:20.509Z,13.18
2023-05-20T00:46:30.485Z,13.16
2023-05-20T00:47:39.442Z,13.13
2023-05-20T00:48:45.219Z,13.13
2023-05-20T00:49:53.347Z,13.09
2023-05-20T00:50:59.666Z,13.07
2023-05-20T00:52:08.114Z,13.06
2023-05-20T00:53:17.730Z,13.03
2023-05-20T00:54:24.368Z,13.01
2023-05-20T00:55:32.037Z,12.98
2023-05-20T00:56:39.272Z,12.96
2023-05-20T00:57:46.099Z,12.93
2023-05-20T00:58:52.976Z,12.90
2023-05-20T01:00:00.296Z,12.88
2023-05-20T01:01:06.917Z,12.85
2023-05-20T01:02:13.831Z,12.82
2023-05-20T01:03:20.186Z,12.79
2023-05-20T01:04:26.826Z,12.76
2023-05-20T01:05:34.095Z,12.74
2023-05-20T01:06:40.861Z,12.73
2023-05-20T01:07:47.033Z,12.72
2023-05-20T01:08:52.777Z,12.70
2023-05-20T01:09:59.933Z,12.68
2023-05-20T01:11:09.411Z,12.66
2023-05-20T01:12:21.584Z,12.63
2023-05-20T01:13:34.562Z,12.61
2023-05-20T01:14:48.495Z,12.58
2023-05-20T01:15:57.292Z,12.55
2023-05-20T01:17:11.051Z,12.53
2023-05-20T01:18:18.834Z,12.49
2023-05-20T01:19:38.765Z,12.47
2023-05-20T01:20:47.597Z,12.43
2023-05-20T01:21:55.491Z,12.40
2023-05-20T01:23:01.890Z,12.37
2023-05-20T01:24:09.125Z,12.37
2023-05-20T01:25:15.421Z,12.35
2023-05-20T01:26:27.380Z,12.33
2023-05-20T01:27:34.012Z,12.32
2023-05-20T01:28:40.206Z,12.29
2023-05-20T01:29:48.541Z,12.26
2023-05-20T01:30:57.072Z,12.23
2023-05-20T01:32:09.318Z,12.21
2023-05-20T01:33:19.413Z,12.18
2023-05-20T01:34:26.028Z,12.16
2023-05-20T01:35:34.116Z,12.14
2023-05-20T01:36:43.198Z,12.12
2023-05-20T01:37:50.711Z,12.09
2023-05-20T01:38:57.898Z,12.08
2023-05-20T01:40:08.365Z,12.05
2023-05-20T01:41:15.200Z,12.04
2023-05-20T01:42:21.466Z,12.04
2023-05-20T01:43:29.283Z,12.03
2023-05-20T01:44:35.358Z,12.03
2023-05-20T01:45:43.613Z,12.03
2023-05-20T01:46:52.565Z,12.01
2023-05-20T01:47:57.096Z,11.99
2023-05-20T01:49:03.027Z,11.94
2023-05-20T01:50:11.443Z,11.93
2023-05-20T01:51:18.104Z,11.92
2023-05-20T01:52:25.247Z,11.91
2023-05-20T01:53:32.237Z,11.90
2023-05-20T01:54:39.092Z,11.90
2023-05-20T01:55:45.239Z,11.88
2023-05-20T01:56:52.004Z,11.89
2023-05-20T01:57:57.756Z,11.88
2023-05-20T01:59:03.619Z,11.89
2023-05-20T02:00:11.884Z,11.89
2023-05-20T02:01:18.092Z,11.90
2023-05-20T02:02:24.429Z,11.91
2023-05-20T02:03:30.621Z,11.91
2023-05-20T02:04:36.539Z,11.91
2023-05-20T02:05:42.994Z,11.91
2023-05-20T02:06:49.751Z,11.90
2023-05-20T02:07:56.118Z,11.90
2023-05-20T02:09:02.158Z,11.89
2023-05-20T02:10:11.685Z,11.88
2023-05-20T02:11:17.846Z,11.88
2023-05-20T02:12:23.936Z,11.87
2023-05-20T02:13:30.323Z,11.86
2023-05-20T02:14:36.961Z,11.85
2023-05-20T02:15:45.026Z,11.85
2023-05-20T02:16:51.093Z,11.86
2023-05-20T02:17:58.356Z,11.85
2023-05-20T02:19:05.979Z,11.85
2023-05-20T02:20:14.324Z,11.85
2023-05-20T02:21:22.339Z,11.85
2023-05-20T02:22:29.192Z,11.84
2023-05-20T02:23:35.459Z,11.83
2023-05-20T02:24:43.744Z,11.83
2023-05-20T02:25:49.917Z,11.82
2023-05-20T02:26:57.517Z,11.81
2023-05-20T02:28:06.508Z,11.81
2023-05-20T02:29:12.794Z,11.79
2023-05-20T02:30:19.513Z,11.77
2023-05-20T02:31:26.080Z,11.76
2023-05-20T02:32:33.835Z,11.74
2023-05-20T02:33:39.460Z,11.73
2023-05-20T02:34:45.583Z,11.71
2023-05-20T02:35:51.650Z,11.70
2023-05-20T02:36:57.891Z,11.70
2023-05-20T02:38:03.643Z,11.69
2023-05-20T02:39:10.373Z,11.68
2023-05-20T02:40:17.663Z,11.66
2023-05-20T02:41:23.643Z,11.64
2023-05-20T02:42:29.395Z,11.63
2023-05-20T02:43:36.542Z,11.61
2023-05-20T02:44:42.331Z,11.59
2023-05-20T02:45:49.699Z,11.58
2023-05-20T02:46:55.840Z,11.57
2023-05-20T02:48:02.142Z,11.56
2023-05-20T02:49:09.229Z,11.56
2023-05-20T02:50:15.600Z,11.56
2023-05-20T02:51:21.887Z,11.56
2023-05-20T02:52:28.520Z,11.56
2023-05-20T02:53:34.374Z,11.56
2023-05-20T02:54:40.763Z,11.56
2023-05-20T02:55:49.126Z,11.56
2023-05-20T02:56:55.368Z,11.55
2023-05-20T02:58:01.250Z,11.56
2023-05-20T02:59:08.559Z,11.56
2023-05-20T03:00:16.522Z,11.56
2023-05-20T03:01:23.618Z,11.57
2023-05-20T03:02:29.919Z,11.57
2023-05-20T03:03:44.003Z,11.57
2023-05-20T03:04:50.748Z,11.57
2023-05-20T03:05:57.902Z,11.59
2023-05-20T03:07:04.684Z,11.58
2023-05-20T03:08:12.877Z,11.63
2023-05-20T03:09:20.223Z,11.64
2023-05-20T03:10:27.535Z,11.65
2023-05-20T03:11:33.637Z,11.67
2023-05-20T03:12:40.153Z,11.68
2023-05-20T03:13:46.918Z,11.69
2023-05-20T03:14:55.456Z,11.71
2023-05-20T03:16:01.939Z,11.72
2023-05-20T03:17:08.475Z,11.73
2023-05-20T03:18:15.425Z,11.75
2023-05-20T03:19:22.807Z,11.76
2023-05-20T03:20:32.889Z,11.75
2023-05-20T03:21:39.650Z,11.76
2023-05-20T03:22:45.706Z,11.78
2023-05-20T03:23:52.132Z,11.81
2023-05-20T03:24:58.531Z,11.84
2023-05-20T03:26:07.004Z,11.86
2023-05-20T03:27:13.502Z,11.88
2023-05-20T03:28:19.777Z,11.90
2023-05-20T03:29:26.968Z,11.93
2023-05-20T03:30:33.116Z,11.95
2023-05-20T03:31:39.372Z,11.97
2023-05-20T03:32:52.093Z,12.00
2023-05-20T03:33:58.424Z,12.02
2023-05-20T03:35:05.883Z,12.02
2023-05-20T03:36:12.157Z,12.04
2023-05-20T03:37:18.148Z,12.03
2023-05-20T03:38:24.353Z,12.03
2023-05-20T03:39:30.374Z,12.02
2023-05-20T03:40:37.103Z,12.03
2023-05-20T03:41:44.068Z,12.04
2023-05-20T03:42:52.621Z,12.06
2023-05-20T03:43:58.706Z,12.07
2023-05-20T03:45:07.136Z,12.08
2023-05-20T03:46:13.270Z,12.10
2023-05-20T03:47:20.015Z,12.10
2023-05-20T03:48:26.153Z,12.12
2023-05-20T03:49:32.980Z,12.14
2023-05-20T03:50:39.988Z,12.14
2023-05-20T03:51:46.520Z,12.16
2023-05-20T03:52:52.561Z,12.16
2023-05-20T03:53:58.729Z,12.16
2023-05-20T03:55:06.527Z,12.18
2023-05-20T03:56:12.897Z,12.19
2023-05-20T03:57:19.954Z,12.22
2023-05-20T03:58:26.977Z,12.25
2023-05-20T03:59:33.191Z,12.28
2023-05-20T04:00:39.841Z,12.32
2023-05-20T04:01:46.694Z,12.33
2023-05-20T04:02:52.842Z,12.34
2023-05-20T04:04:00.428Z,12.37
2023-05-20T04:05:10.538Z,12.39
2023-05-20T04:06:16.656Z,12.41
2023-05-20T04:07:22.716Z,12.42
2023-05-20T04:08:29.281Z,12.42
2023-05-20T04:09:35.167Z,12.44
2023-05-20T04:10:43.263Z,12.44
2023-05-20T04:11:49.311Z,12.45
2023-05-20T04:12:55.579Z,12.45
2023-05-20T04:14:01.705Z,12.47
2023-05-20T04:15:11.894Z,12.49
2023-05-20T04:16:18.434Z,12.52
2023-05-20T04:17:24.642Z,12.55
2023-05-20T04:18:31.905Z,12.59
2023-05-20T04:19:38.369Z,12.65
2023-05-20T04:20:45.893Z,12.70
2023-05-20T04:21:51.751Z,12.76
2023-05-20T04:22:58.436Z,12.81
2023-05-20T04:24:04.855Z,12.87
2023-05-20T04:25:12.497Z,12.93
2023-05-20T04:26:19.028Z,13.02
2023-05-20T04:27:25.902Z,13.11
2023-05-20T04:28:31.976Z,13.22
2023-05-20T04:29:38.812Z,13.35
2023-05-20T04:30:45.910Z,13.47
2023-05-20T04:31:53.768Z,13.60
2023-05-20T04:33:04.180Z,13.73
2023-05-20T04:34:10.966Z,13.87
2023-05-20T04:35:17.250Z,14.00
2023-05-20T04:36:28.679Z,14.12
2023-05-20T04:37:35.502Z,14.25
2023-05-20T04:38:42.364Z,14.36
2023-05-20T04:39:50.016Z,14.47
2023-05-20T04:40:58.487Z,14.57
2023-05-20T04:42:05.394Z,14.66
2023-05-20T04:43:12.285Z,14.73
2023-05-20T04:44:17.985Z,14.78
2023-05-20T04:45:24.059Z,14.84
2023-05-20T04:46:30.191Z,14.90
2023-05-20T04:47:39.358Z,14.98
2023-05-20T04:48:45.999Z,15.05
2023-05-20T04:49:53.100Z,15.11
2023-05-20T04:50:58.916Z,15.15
2023-05-20T04:52:05.749Z,15.20
2023-05-20T04:53:11.689Z,15.23
2023-05-20T04:54:20.452Z,15.25
2023-05-20T04:55:28.007Z,15.27
2023-05-20T04:56:33.987Z,15.27
2023-05-20T04:57:42.501Z,15.29
2023-05-20T04:58:50.191Z,15.32
2023-05-20T04:59:59.464Z,15.35
2023-05-20T05:01:06.616Z,15.38
2023-05-20T05:02:12.750Z,15.40
2023-05-20T05:03:19.561Z,15.39
2023-05-20T05:04:26.466Z,15.40
2023-05-20T05:05:33.136Z,15.40
2023-05-20T05:06:39.400Z,15.42
2023-05-20T05:07:45.811Z,15.43
2023-05-20T05:08:51.550Z,15.43
2023-05-20T05:09:57.723Z,15.44
2023-05-20T05:11:05.626Z,15.45
2023-05-20T05:12:11.867Z,15.48
2023-05-20T05:13:17.943Z,15.51
2023-05-20T05:14:24.524Z,15.55
2023-05-20T05:15:31.254Z,15.59
2023-05-20T05:16:37.499Z,15.62
2023-05-20T05:17:43.429Z,15.67
2023-05-20T05:18:49.906Z,15.70
2023-05-20T05:19:56.281Z,15.75
2023-05-20T05:21:04.478Z,15.80
2023-05-20T05:22:11.196Z,15.86
2023-05-20T05:23:17.540Z,15.92
2023-05-20T05:24:23.213Z,15.96
2023-05-20T05:25:29.620Z,16.00
2023-05-20T05:26:35.920Z,16.06
2023-05-20T05:27:42.962Z,16.12
2023-05-20T05:28:49.128Z,16.20
2023-05-20T05:29:55.101Z,16.26
2023-05-20T05:31:02.862Z,16.33
2023-05-20T05:32:10.247Z,16.42
2023-05-20T05:33:17.700Z,16.52
2023-05-20T05:34:23.839Z,16.61
2023-05-20T05:35:30.189Z,16.69
2023-05-20T05:36:38.452Z,16.77
2023-05-20T05:37:44.532Z,16.87
2023-05-20T05:38:51.161Z,16.96
2023-05-20T05:39:57.386Z,17.05
2023-05-20T05:41:04.292Z,17.15
2023-05-20T05:42:10.873Z,17.26
2023-05-20T05:43:16.875Z,17.36
2023-05-20T05:44:23.400Z,17.47
2023-05-20T05:45:29.924Z,17.58
2023-05-20T05:46:36.288Z,17.69
2023-05-20T05:47:43.125Z,17.80
2023-05-20T05:48:51.711Z,17.91
2023-05-20T05:49:58.265Z,18.01
2023-05-20T05:51:04.930Z,18.09
2023-05-20T05:52:11.289Z,18.16
2023-05-20T05:53:17.215Z,18.21
2023-05-20T05:54:23.376Z,18.29
2023-05-20T05:55:29.948Z,18.39
2023-05-20T05:56:36.080Z,18.51
2023-05-20T05:57:42.077Z,18.62
2023-05-20T05:58:48.647Z,18.70
2023-05-20T05:59:56.055Z,18.76
2023-05-20T06:01:02.366Z,18.80
2023-05-20T06:02:11.129Z,18.83
2023-05-20T06:03:18.082Z,18.84
2023-05-20T06:04:24.875Z,18.83
2023-05-20T06:05:31.451Z,18.83
2023-05-20T06:06:38.129Z,18.86
2023-05-20T06:07:46.088Z,18.89
2023-05-20T06:08:52.616Z,18.90
2023-05-20T06:09:59.603Z,18.90
2023-05-20T06:11:06.874Z,18.87
2023-05-20T06:12:13.972Z,18.84
2023-05-20T06:13:22.906Z,18.79
2023-05-20T06:14:29.254Z,18.74
2023-05-20T06:15:36.912Z,18.72
2023-05-20T06:16:44.454Z,18.72
2023-05-20T06:17:53.554Z,18.73
2023-05-20T06:19:02.663Z,18.73
2023-05-20T06:20:12.467Z,18.71
2023-05-20T06:21:19.209Z,18.70
2023-05-20T06:22:24.950Z,18.71
2023-05-20T06:23:31.627Z,18.71
2023-05-20T06:24:38.004Z,18.74
2023-05-20T06:25:44.303Z,18.78
2023-05-20T06:26:51.192Z,18.85
2023-05-20T06:27:57.199Z,18.91
2023-05-20T06:29:03.613Z,19.00
2023-05-20T06:30:13.628Z,19.08
2023-05-20T06:31:19.808Z,19.14
2023-05-20T06:32:25.842Z,19.19
2023-05-20T06:33:32.305Z,19.24
2023-05-20T06:34:38.809Z,19.26
2023-05-20T06:35:45.006Z,19.23
2023-05-20T06:36:50.783Z,19.21
2023-05-20T06:37:56.936Z,19.17
2023-05-20T06:39:06.519Z,19.16
2023-05-20T06:40:14.714Z,19.15
2023-05-20T06:41:22.549Z,19.15
2023-05-20T06:42:28.753Z,19.18
2023-05-20T06:43:34.919Z,19.20
2023-05-20T06:44:40.850Z,19.22
2023-05-20T06:45:51.573Z,19.22
2023-05-20T06:46:59.941Z,19.25
2023-05-20T06:48:10.319Z,19.28
2023-05-20T06:49:16.770Z,19.37
2023-05-20T06:50:23.556Z,19.46
2023-05-20T06:51:31.240Z,19.52
2023-05-20T06:52:37.591Z,19.57
2023-05-20T06:53:46.187Z,19.65
2023-05-20T06:54:52.205Z,19.77
2023-05-20T06:55:58.476Z,19.88
2023-05-20T06:57:06.092Z,19.96
2023-05-20T06:58:11.988Z,20.06
2023-05-20T06:59:18.301Z,20.18
2023-05-20T07:00:24.636Z,20.32
2023-05-20T07:01:30.414Z,20.43
2023-05-20T07:02:36.404Z,20.52
2023-05-20T07:03:44.307Z,20.58
2023-05-20T07:04:51.254Z,20.68
2023-05-20T07:05:57.130Z,20.81
2023-05-20T07:07:04.478Z,20.93
2023-05-20T07:08:11.418Z,21.04
2023-05-20T07:09:18.044Z,21.12
2023-05-20T07:10:24.396Z,21.18
2023-05-20T07:11:30.255Z,21.25
2023-05-20T07:12:37.132Z,21.35
2023-05-20T07:13:43.567Z,21.47
2023-05-20T07:14:49.509Z,21.57
2023-05-20T07:15:55.454Z,21.69
2023-05-20T07:17:02.383Z,21.81
2023-05-20T07:18:16.416Z,21.93
2023-05-20T07:19:22.916Z,22.02
2023-05-20T07:20:29.767Z,22.05
2023-05-20T07:21:36.886Z,22.08
2023-05-20T07:22:46.010Z,22.13
2023-05-20T07:23:50.163Z,22.23
2023-05-20T07:24:56.366Z,22.29
2023-05-20T07:26:03.703Z,22.39
2023-05-20T07:27:09.664Z,22.49
2023-05-20T07:28:18.908Z,22.58
2023-05-20T07:29:25.096Z,22.66
2023-05-20T07:30:31.214Z,22.73
2023-05-20T07:31:38.415Z,22.82
2023-05-20T07:32:44.652Z,22.91
2023-05-20T07:33:51.942Z,23.03
2023-05-20T07:34:58.005Z,23.15
2023-05-20T07:36:04.103Z,23.25
2023-05-20T07:37:13.480Z,23.33
2023-05-20T07:38:19.803Z,23.43
2023-05-20T07:39:26.614Z,23.55
2023-05-20T07:40:34.217Z,23.65
2023-05-20T07:41:40.981Z,23.72
2023-05-20T07:42:46.964Z,23.77
2023-05-20T07:43:53.110Z,23.82
2023-05-20T07:44:58.911Z,23.85
2023-05-20T07:46:04.961Z,23.85
2023-05-20T07:47:13.465Z,23.83
2023-05-20T07:48:23.291Z,23.79
2023-05-20T07:49:30.089Z,23.77
2023-05-20T07:50:37.973Z,23.79
2023-05-20T07:51:46.560Z,23.86
2023-05-20T07:52:56.825Z,23.90
2023-05-20T07:54:04.286Z,23.90
2023-05-20T07:55:10.677Z,23.90
2023-05-20T07:56:16.850Z,23.86
2023-05-20T07:57:23.582Z,23.83
2023-05-20T07:58:30.854Z,23.74
2023-05-20T07:59:37.297Z,23.66
2023-05-20T08:00:44.040Z,23.50
2023-05-20T08:01:49.975Z,23.44
2023-05-20T08:02:56.525Z,23.38
2023-05-20T08:04:03.200Z,23.28
2023-05-20T08:05:11.155Z,23.22
2023-05-20T08:06:17.658Z,23.20
2023-05-20T08:07:23.837Z,23.21
2023-05-20T08:08:31.449Z,23.26
2023-05-20T08:09:37.914Z,23.31
2023-05-20T08:10:44.262Z,23.35
2023-05-20T08:11:50.134Z,23.41
2023-05-20T08:12:56.046Z,23.42
2023-05-20T08:14:02.586Z,23.40
2023-05-20T08:15:12.568Z,23.40
2023-05-20T08:16:19.157Z,23.41
2023-05-20T08:17:25.427Z,23.45
2023-05-20T08:18:39.128Z,23.51
2023-05-20T08:19:46.282Z,23.62
2023-05-20T08:20:52.493Z,23.71
2023-05-20T08:21:58.583Z,23.76
2023-05-20T08:23:05.144Z,23.78
2023-05-20T08:24:12.528Z,23.78
2023-05-20T08:25:20.158Z,23.79
2023-05-20T08:26:26.893Z,23.79
2023-05-20T08:27:32.866Z,23.75
2023-05-20T08:28:39.609Z,23.67
2023-05-20T08:29:46.270Z,23.51
2023-05-20T08:30:52.198Z,23.43
2023-05-20T08:31:59.906Z,23.39
2023-05-20T08:33:06.183Z,23.35
2023-05-20T08:34:12.714Z,23.38
2023-05-20T08:35:18.895Z,23.42
2023-05-20T08:36:25.420Z,23.46
2023-05-20T08:37:31.826Z,23.51
2023-05-20T08:38:38.032Z,23.59
2023-05-20T08:39:47.681Z,23.67
2023-05-20T08:40:56.871Z,23.76
2023-05-20T08:42:01.980Z,23.82
2023-05-20T08:43:08.586Z,23.83
2023-05-20T08:44:15.145Z,23.87
2023-05-20T08:45:27.543Z,23.93
2023-05-20T08:46:36.099Z,23.98
2023-05-20T08:47:44.808Z,24.05
2023-05-20T08:48:51.674Z,24.13
2023-05-20T08:49:57.547Z,24.20
2023-05-20T08:51:06.749Z,24.31
2023-05-20T08:52:14.792Z,24.41
2023-05-20T08:53:22.640Z,24.49
2023-05-20T08:54:46.530Z,24.59
2023-05-20T08:56:02.550Z,24.70
2023-05-20T08:57:08.646Z,24.78
2023-05-20T08:58:15.803Z,24.87
2023-05-20T08:59:22.458Z,24.94
2023-05-20T09:00:29.032Z,24.93
2023-05-20T09:01:41.716Z,24.89
2023-05-20T09:02:48.484Z,24.86
2023-05-20T09:03:55.566Z,24.81
2023-05-20T09:05:01.488Z,24.79
2023-05-20T09:06:09.734Z,24.79
2023-05-20T09:07:26.528Z,24.82
2023-05-20T09:08:33.196Z,24.82
2023-05-20T09:09:39.431Z,24.87
2023-05-20T09:10:46.194Z,24.94
2023-05-20T09:11:52.144Z,24.97
2023-05-20T09:12:57.952Z,25.00
2023-05-20T09:14:04.538Z,25.08
2023-05-20T09:15:11.461Z,25.15
2023-05-20T09:16:17.890Z,25.17
2023-05-20T09:17:25.212Z,25.19
2023-05-20T09:18:32.298Z,25.22
2023-05-20T09:19:38.768Z,25.31
2023-05-20T09:20:46.974Z,25.37
2023-05-20T09:21:56.228Z,25.45
2023-05-20T09:23:03.624Z,25.54
2023-05-20T09:24:09.958Z,25.56
2023-05-20T09:25:23.742Z,25.57
2023-05-20T09:26:30.911Z,25.43
2023-05-20T09:27:37.329Z,25.31
2023-05-20T09:28:43.360Z,25.14
2023-05-20T09:29:50.894Z,24.89
2023-05-20T09:31:02.237Z,24.64
2023-05-20T09:32:09.567Z,24.46
2023-05-20T09:33:16.670Z,24.31
2023-05-20T09:34:23.940Z,24.17
2023-05-20T09:35:30.238Z,24.08
2023-05-20T09:36:39.822Z,23.98
2023-05-20T09:37:48.804Z,23.85
2023-05-20T09:39:00.495Z,23.77
2023-05-20T09:40:15.858Z,23.74
2023-05-20T09:41:29.457Z,23.71
2023-05-20T09:42:40.012Z,23.68
2023-05-20T09:43:48.298Z,23.71
2023-05-20T09:44:58.481Z,23.76
2023-05-20T09:46:06.226Z,23.83
2023-05-20T09:47:12.982Z,23.91
2023-05-20T09:48:19.599Z,23.95
2023-05-20T09:49:31.392Z,23.92
2023-05-20T09:50:37.764Z,23.78
2023-05-20T09:51:46.224Z,23.56
2023-05-20T09:52:53.572Z,23.51
2023-05-20T09:54:01.027Z,23.42
2023-05-20T09:55:12.987Z,23.35
2023-05-20T09:56:22.099Z,23.31
2023-05-20T09:57:26.322Z,23.30
2023-05-20T09:58:34.105Z,23.27
2023-05-20T09:59:40.690Z,23.22
2023-05-20T10:00:47.254Z,23.19
2023-05-20T10:01:53.237Z,23.15
2023-05-20T10:03:00.224Z,23.11
2023-05-20T10:04:09.193Z,23.09
2023-05-20T10:05:17.431Z,23.08
2023-05-20T10:06:39.361Z,23.00
2023-05-20T10:08:16.158Z,22.95
2023-05-20T10:09:46.576Z,22.86
2023-05-20T10:11:06.076Z,22.83
2023-05-20T10:12:25.012Z,22.77
2023-05-20T10:13:46.675Z,22.69
2023-05-20T10:15:06.231Z,22.66
2023-05-20T10:16:25.878Z,22.63
2023-05-20T10:17:41.294Z,22.62
2023-05-20T10:18:58.893Z,22.60
2023-05-20T10:20:09.365Z,22.64
2023-05-20T10:21:24.814Z,22.72
2023-05-20T10:22:34.199Z,22.83
2023-05-20T10:23:40.872Z,22.89
2023-05-20T10:24:47.319Z,22.91
2023-05-20T10:25:56.787Z,22.92
2023-05-20T10:27:04.618Z,22.93
2023-05-20T10:28:11.661Z,22.91
2023-05-20T10:29:21.364Z,22.89
2023-05-20T10:30:27.832Z,22.91
2023-05-20T10:31:44.717Z,22.95
2023-05-20T10:33:01.096Z,22.97
2023-05-20T10:34:20.072Z,22.99
2023-05-20T10:35:28.992Z,23.02
2023-05-20T10:36:35.575Z,23.07
2023-05-20T10:37:48.969Z,23.12
2023-05-20T10:39:01.638Z,23.18
2023-05-20T10:40:13.992Z,23.22
2023-05-20T10:41:25.064Z,23.31
2023-05-20T10:42:31.397Z,23.39
2023-05-20T10:43:37.991Z,23.45
2023-05-20T10:44:46.966Z,23.51
2023-05-20T10:45:55.368Z,23.60
2023-05-20T10:47:24.506Z,23.65
2023-05-20T10:48:34.685Z,23.71
2023-05-20T10:49:47.875Z,23.76
2023-05-20T10:50:57.113Z,23.84
2023-05-20T10:52:03.563Z,23.96
2023-05-20T10:53:29.385Z,24.07
2023-05-20T10:54:46.942Z,24.24
2023-05-20T10:55:56.332Z,24.37
2023-05-20T10:57:09.518Z,24.51
2023-05-20T10:58:17.231Z,24.70
2023-05-20T10:59:26.562Z,24.91
2023-05-20T11:00:35.078Z,25.07
2023-05-20T11:01:39.945Z,25.20
2023-05-20T11:02:47.562Z,25.31
2023-05-20T11:03:58.047Z,25.44
2023-05-20T11:05:13.054Z,25.58
2023-05-20T11:06:18.707Z,25.75
2023-05-20T11:07:29.328Z,25.89
2023-05-20T11:08:37.170Z,26.06
2023-05-20T11:09:51.891Z,26.15
2023-05-20T11:10:59.558Z,26.31
2023-05-20T11:12:07.368Z,26.45
2023-05-20T11:13:15.717Z,26.53
2023-05-20T11:14:23.974Z,26.59
2023-05-20T11:15:31.143Z,26.71
2023-05-20T11:16:37.975Z,26.85
2023-05-20T11:17:56.519Z,26.93
2023-05-20T11:19:03.513Z,26.99
2023-05-20T11:20:15.839Z,27.05
2023-05-20T11:21:21.985Z,27.17
2023-05-20T11:22:28.108Z,27.27
2023-05-20T11:23:40.621Z,27.37
2023-05-20T11:24:48.211Z,27.49
2023-05-20T11:25:55.239Z,27.56
2023-05-20T11:27:02.721Z,27.57
2023-05-20T11:28:17.773Z,27.59
2023-05-20T11:29:23.606Z,27.59
2023-05-20T11:30:30.513Z,27.55
2023-05-20T11:31:39.447Z,27.54
2023-05-20T11:32:56.399Z,27.57
2023-05-20T11:34:05.216Z,27.60
2023-05-20T11:35:23.748Z,27.65
2023-05-20T11:36:31.064Z,27.62
2023-05-20T11:37:37.898Z,27.57
2023-05-20T11:38:46.392Z,27.48
2023-05-20T11:40:10.299Z,27.40
2023-05-20T11:41:16.529Z,27.22
2023-05-20T11:42:23.499Z,27.18
2023-05-20T11:43:30.293Z,27.22
2023-05-20T11:44:36.769Z,27.31
2023-05-20T11:45:46.080Z,27.38
2023-05-20T11:46:59.248Z,27.35
2023-05-20T11:48:06.540Z,27.29
2023-05-20T11:49:17.153Z,27.24
2023-05-20T11:50:24.288Z,27.22
2023-05-20T11:51:30.824Z,27.26
2023-05-20T11:52:39.227Z,27.32
2023-05-20T11:53:49.972Z,27.34
2023-05-20T11:54:57.482Z,27.27
2023-05-20T11:56:04.967Z,27.10
2023-05-20T11:57:17.285Z,26.95
2023-05-20T11:58:26.952Z,26.78
2023-05-20T11:59:33.229Z,26.72
2023-05-20T12:00:50.116Z,26.73
2023-05-20T12:01:59.165Z,26.73
2023-05-20T12:03:05.540Z,26.72
2023-05-20T12:04:15.152Z,26.71
2023-05-20T12:05:22.193Z,26.65
2023-05-20T12:06:28.510Z,26.63
2023-05-20T12:07:34.262Z,26.59
2023-05-20T12:08:40.530Z,26.58
2023-05-20T12:09:46.456Z,26.55
2023-05-20T12:10:52.603Z,26.54
2023-05-20T12:11:59.462Z,26.56
2023-05-20T12:13:09.507Z,26.53
2023-05-20T12:14:16.165Z,26.54
2023-05-20T12:15:21.965Z,26.58
2023-05-20T12:16:28.549Z,26.58
2023-05-20T12:17:48.101Z,26.58
2023-05-20T12:18:53.891Z,26.57
2023-05-20T12:20:00.136Z,26.54
2023-05-20T12:21:06.753Z,26.54
2023-05-20T12:22:12.869Z,26.61
2023-05-20T12:23:19.516Z,26.76
2023-05-20T12:24:25.924Z,26.93
2023-05-20T12:25:32.264Z,27.12
2023-05-20T12:26:38.996Z,27.31
2023-05-20T12:27:48.533Z,27.47
2023-05-20T12:28:55.212Z,27.57
2023-05-20T12:30:01.855Z,27.64
2023-05-20T12:31:09.028Z,27.71
2023-05-20T12:32:15.251Z,27.76
2023-05-20T12:33:21.482Z,27.77
2023-05-20T12:34:27.719Z,27.73
2023-05-20T12:35:42.029Z,27.67
2023-05-20T12:36:51.490Z,27.61
2023-05-20T12:37:57.416Z,27.52
2023-05-20T12:39:05.464Z,27.56
2023-05-20T12:40:14.025Z,27.60
2023-05-20T12:41:20.486Z,27.72
2023-05-20T12:42:27.984Z,27.87
2023-05-20T12:43:36.928Z,28.07
2023-05-20T12:44:43.557Z,28.30
2023-05-20T12:45:51.323Z,28.42
2023-05-20T12:46:58.013Z,28.53
2023-05-20T12:48:06.121Z,28.51
2023-05-20T12:49:12.584Z,28.43
2023-05-20T12:50:18.569Z,28.27
2023-05-20T12:51:26.417Z,28.06
2023-05-20T12:52:32.569Z,27.93
2023-05-20T12:53:40.342Z,27.71
2023-05-20T12:54:46.462Z,27.54
2023-05-20T12:55:52.596Z,27.39
2023-05-20T12:56:59.120Z,27.27
2023-05-20T12:58:04.829Z,27.20
2023-05-20T12:59:10.952Z,27.03
2023-05-20T13:00:18.805Z,26.88
2023-05-20T13:01:24.921Z,26.72
2023-05-20T13:02:32.187Z,26.57
2023-05-20T13:03:38.722Z,26.47
2023-05-20T13:04:49.017Z,26.38
2023-05-20T13:05:59.010Z,26.32
2023-05-20T13:07:05.885Z,26.31
2023-05-20T13:08:12.941Z,26.26
2023-05-20T13:09:19.246Z,26.04
2023-05-20T13:10:25.759Z,25.90
2023-05-20T13:11:31.531Z,25.97
2023-05-20T13:12:38.520Z,26.21
2023-05-20T13:13:44.289Z,26.31
2023-05-20T13:14:50.047Z,26.60
2023-05-20T13:15:56.127Z,26.83
2023-05-20T13:17:02.447Z,27.07
2023-05-20T13:18:08.515Z,27.42
2023-05-20T13:19:14.827Z,27.56
2023-05-20T13:20:21.672Z,27.63
2023-05-20T13:21:28.188Z,27.92
2023-05-20T13:22:35.206Z,28.06
2023-05-20T13:23:45.657Z,28.16
2023-05-20T13:24:52.470Z,27.89
2023-05-20T13:26:00.244Z,27.58
2023-05-20T13:27:06.809Z,27.45
2023-05-20T13:28:19.503Z,27.39
2023-05-20T13:29:25.439Z,27.35
2023-05-20T13:30:32.996Z,27.24
2023-05-20T13:31:39.566Z,27.11
2023-05-20T13:32:46.357Z,27.14
2023-05-20T13:33:53.684Z,27.32
2023-05-20T13:35:00.147Z,27.60
2023-05-20T13:36:07.435Z,27.89
2023-05-20T13:37:13.378Z,28.05
2023-05-20T13:38:19.490Z,28.11
2023-05-20T13:39:25.209Z,27.88
2023-05-20T13:40:31.184Z,27.84
2023-05-20T13:41:37.742Z,27.84
2023-05-20T13:42:44.314Z,27.82
2023-05-20T13:43:50.772Z,27.77
2023-05-20T13:44:56.609Z,27.72
2023-05-20T13:46:04.041Z,27.69
2023-05-20T13:47:10.791Z,27.75
2023-05-20T13:48:17.072Z,27.54
2023-05-20T13:49:25.960Z,27.30
2023-05-20T13:50:32.295Z,27.05
2023-05-20T13:51:38.496Z,26.83
2023-05-20T13:52:44.422Z,26.71
2023-05-20T13:53:52.076Z,26.48
2023-05-20T13:54:58.090Z,26.27
2023-05-20T13:56:09.244Z,26.22
2023-05-20T13:57:15.522Z,26.10
2023-05-20T13:58:21.623Z,25.96
2023-05-20T13:59:27.565Z,25.89
2023-05-20T14:00:34.208Z,25.79
2023-05-20T14:01:45.561Z,25.80
2023-05-20T14:02:51.935Z,26.41
2023-05-20T14:03:58.567Z,26.82
2023-05-20T14:05:09.854Z,27.52
2023-05-20T14:06:19.242Z,28.20
2023-05-20T14:07:25.986Z,28.74
2023-05-20T14:08:32.067Z,29.31
2023-05-20T14:09:38.253Z,29.84
2023-05-20T14:10:44.312Z,30.33
2023-05-20T14:11:51.951Z,30.63
2023-05-20T14:13:03.014Z,30.26
2023-05-20T14:14:09.756Z,29.90
2023-05-20T14:15:16.442Z,30.09
2023-05-20T14:16:22.932Z,30.51
2023-05-20T14:17:28.952Z,30.87
2023-05-20T14:18:35.032Z,31.17
2023-05-20T14:19:41.550Z,31.58
2023-05-20T14:20:49.112Z,31.92
2023-05-20T14:21:55.864Z,32.23
2023-05-20T14:23:02.393Z,32.43
2023-05-20T14:24:09.273Z,32.47
2023-05-20T14:25:15.379Z,32.42
2023-05-20T14:26:21.825Z,31.91
2023-05-20T14:27:28.734Z,31.21
2023-05-20T14:28:34.879Z,30.60
2023-05-20T14:29:41.013Z,31.04
2023-05-20T14:30:47.254Z,31.37
2023-05-20T14:31:53.389Z,31.18
2023-05-20T14:32:59.749Z,31.04